Terminal Aerodrome Forecast
Issued by NWS

Home | Current Version | Previous Version | Graphics & Text | Print | Product List | Glossary On
Versions: 1 2 3 4 5 6 7 8 9 10 11 12 13 14 15 16 17
192
FTUS43 KGRB 230543
TAFMTW
TAF
KMTW 230543Z 2306/2406 VRB03KT P6SM SCT028 BKN050
      TEMPO 2306/2307 2SM -TSRA BR BKN035CB
     FM231200 26005KT P6SM BKN030
     FM231500 32009KT P6SM BKN040
     FM232100 36007KT P6SM BKN050
     FM240300 VRB03KT P6SM BKN035=

USA.gov is the U.S. government's official web portal to all federal, state and local government web resources and services.